Aviation Digital Data Service (ADDS)

Output produced by METARs form (2307 UTC 23 May 2022)
found at http://www.aviationweather.gov/metar/data/
 
EVLA 232250Z AUTO 08003KT CAVOK 04/M00 Q1012
TAF EVLA 232302Z 2400/2424 VRB02KT CAVOK 
     PROB40 
     TEMPO 2400/2403 0700 FG 
     BECMG 2405/2407 14010KT
       
EVRA 232250Z 00000KT CAVOK 04/03 Q1013 NOSIG
TAF EVRA 232300Z 2400/2424 VRB02KT CAVOK 
     TEMPO 2400/2404 0600 FG BKN001
       
EVVA 232250Z AUTO 00000KT 1100 PRFG NSC 04/03 Q1012
TAF EVVA 231406Z 2315/2324 33006KT CAVOK